createdAt,value
2019-02-10T05:00:52.761Z,10.20
2019-02-10T05:01:52.636Z,11.80
2019-02-10T05:03:45.295Z,8.80
2019-02-10T05:04:45.178Z,8.40
2019-02-10T05:06:37.861Z,8.20
2019-02-10T05:07:37.730Z,7.40
2019-02-10T05:09:30.400Z,10.40
2019-02-10T05:10:30.290Z,7.90
2019-02-10T05:12:22.960Z,8.60
2019-02-10T05:13:22.830Z,10.00
2019-02-10T05:15:15.511Z,7.70
2019-02-10T05:16:15.382Z,9.50
2019-02-10T05:18:08.041Z,8.30
2019-02-10T05:19:07.925Z,7.60
2019-02-10T05:21:00.606Z,8.60
2019-02-10T05:22:00.475Z,9.80
2019-02-10T05:23:53.134Z,9.30
2019-02-10T05:24:53.032Z,7.80
2019-02-10T05:26:45.703Z,5.50
2019-02-10T05:27:45.569Z,8.10
2019-02-10T05:29:38.239Z,8.60
2019-02-10T05:30:38.120Z,8.50
2019-02-10T05:32:30.801Z,7.70
2019-02-10T05:33:30.676Z,9.10
2019-02-10T05:35:23.343Z,10.50
2019-02-10T05:36:23.213Z,8.10
2019-02-10T05:38:15.879Z,8.90
2019-02-10T05:39:15.768Z,8.60
2019-02-10T05:41:08.460Z,7.70
2019-02-10T05:42:08.330Z,7.00
2019-02-10T05:44:00.980Z,9.70
2019-02-10T05:45:00.957Z,8.70
2019-02-10T05:46:53.552Z,9.40
2019-02-10T05:47:53.421Z,5.80
2019-02-10T05:49:46.104Z,7.50
2019-02-10T05:50:45.979Z,7.60
2019-02-10T05:52:38.631Z,6.30
2019-02-10T05:53:38.518Z,9.10
2019-02-10T05:55:31.203Z,7.20
2019-02-10T05:56:31.073Z,8.10
2019-02-10T05:58:23.745Z,7.10
2019-02-10T05:59:23.622Z,8.50
2019-02-10T06:01:16.303Z,5.80
2019-02-10T06:02:16.177Z,4.80
2019-02-10T06:04:08.841Z,4.60
2019-02-10T06:05:08.845Z,5.90
2019-02-10T06:07:01.400Z,5.90
2019-02-10T06:08:01.275Z,7.00
2019-02-10T06:09:53.955Z,5.10
2019-02-10T06:10:53.829Z,6.70
2019-02-10T06:12:46.494Z,7.30
2019-02-10T06:13:46.390Z,5.10
2019-02-10T06:15:39.057Z,5.60
2019-02-10T06:16:38.929Z,5.30
2019-02-10T06:18:31.592Z,5.10
2019-02-10T06:19:31.474Z,5.80
2019-02-10T06:21:24.153Z,4.10
2019-02-10T06:22:24.027Z,5.30
2019-02-10T06:24:16.758Z,6.60
2019-02-10T06:25:16.590Z,5.80
2019-02-10T06:27:09.238Z,5.10
2019-02-10T06:28:09.136Z,5.60
2019-02-10T06:30:01.808Z,5.30
2019-02-10T06:31:01.680Z,5.10
2019-02-10T06:32:54.397Z,5.40
2019-02-10T06:33:54.284Z,7.00
2019-02-10T06:35:46.963Z,4.70
2019-02-10T06:36:46.836Z,5.20
2019-02-10T06:38:39.494Z,4.10
2019-02-10T06:39:39.384Z,5.90
2019-02-10T06:41:32.062Z,4.40
2019-02-10T06:42:31.929Z,6.00
2019-02-10T06:44:24.605Z,3.50
2019-02-10T06:45:24.479Z,4.60
2019-02-10T06:47:17.141Z,4.10
2019-02-10T06:48:17.025Z,4.40
2019-02-10T06:50:09.708Z,3.90
2019-02-10T06:51:09.575Z,3.70
2019-02-10T06:53:02.236Z,3.70
2019-02-10T06:54:02.139Z,4.40
2019-02-10T06:55:54.812Z,3.10
2019-02-10T06:56:54.676Z,4.00
2019-02-10T06:58:48.284Z,5.80
2019-02-10T06:59:47.227Z,3.70
2019-02-10T07:01:39.904Z,3.40
2019-02-10T07:02:39.839Z,3.50
2019-02-10T07:04:32.458Z,5.10
2019-02-10T07:05:32.336Z,4.10
2019-02-10T07:07:24.992Z,3.90
2019-02-10T07:08:30.432Z,4.30
2019-02-10T07:10:17.561Z,2.50
2019-02-10T07:11:17.424Z,4.10
2019-02-10T07:13:10.097Z,4.50
2019-02-10T07:14:09.979Z,3.30
2019-02-10T07:16:02.649Z,5.40
2019-02-10T07:17:02.530Z,3.70
2019-02-10T07:18:55.192Z,3.30
2019-02-10T07:19:55.084Z,5.60
2019-02-10T07:21:47.759Z,3.30
2019-02-10T07:22:47.641Z,2.70
2019-02-10T07:24:40.315Z,3.00
2019-02-10T07:25:40.185Z,2.70
2019-02-10T07:27:32.847Z,2.10
2019-02-10T07:28:32.729Z,3.00
2019-02-10T07:30:25.419Z,2.80
2019-02-10T07:31:25.277Z,3.30
2019-02-10T07:33:17.941Z,3.40
2019-02-10T07:34:17.836Z,2.50
2019-02-10T07:36:10.509Z,1.80
2019-02-10T07:37:10.381Z,3.30
2019-02-10T07:39:03.053Z,3.40
2019-02-10T07:40:02.938Z,2.20
2019-02-10T07:41:55.618Z,2.30
2019-02-10T07:42:55.489Z,3.80
2019-02-10T07:44:48.157Z,2.30
2019-02-10T07:45:48.037Z,2.60
2019-02-10T07:47:40.717Z,3.70
2019-02-10T07:48:40.593Z,1.90
2019-02-10T07:50:33.291Z,2.50
2019-02-10T07:51:33.148Z,2.50
2019-02-10T07:53:25.807Z,2.40
2019-02-10T07:54:25.702Z,2.20
2019-02-10T07:56:18.371Z,1.70
2019-02-10T07:57:18.243Z,3.10
2019-02-10T07:59:10.908Z,1.90
2019-02-10T08:00:10.802Z,2.70
2019-02-10T08:02:03.492Z,2.40
2019-02-10T08:03:03.368Z,2.10
2019-02-10T08:04:56.020Z,1.50
2019-02-10T08:05:55.907Z,1.90
2019-02-10T08:07:48.591Z,2.50
2019-02-10T08:08:48.465Z,3.10
2019-02-10T08:10:41.147Z,3.40
2019-02-10T08:11:41.014Z,1.90
2019-02-10T08:13:33.683Z,1.60
2019-02-10T08:14:33.570Z,1.70
2019-02-10T08:16:26.258Z,2.10
2019-02-10T08:17:26.131Z,1.60
2019-02-10T08:19:18.800Z,2.90
2019-02-10T08:20:18.690Z,1.90
2019-02-10T08:22:11.368Z,1.60
2019-02-10T08:23:11.238Z,2.40
2019-02-10T08:25:03.923Z,1.80
2019-02-10T08:26:03.821Z,3.10
2019-02-10T08:27:56.486Z,3.70
2019-02-10T08:28:56.348Z,1.50
2019-02-10T08:30:49.024Z,3.00
2019-02-10T08:31:48.897Z,2.70
2019-02-10T08:33:41.561Z,2.60
2019-02-10T08:34:41.454Z,1.60
2019-02-10T08:36:34.131Z,1.40
2019-02-10T08:37:34.004Z,1.60
2019-02-10T08:39:26.660Z,2.40
2019-02-10T08:40:26.561Z,1.80
2019-02-10T08:42:19.238Z,1.50
2019-02-10T08:43:19.192Z,1.80
2019-02-10T08:45:11.787Z,1.40
2019-02-10T08:46:11.664Z,1.20
2019-02-10T08:48:04.327Z,1.90
2019-02-10T08:49:04.218Z,1.60
2019-02-10T08:50:56.902Z,1.60
2019-02-10T08:51:56.772Z,2.20
2019-02-10T08:53:49.441Z,1.40
2019-02-10T08:54:49.322Z,2.00
2019-02-10T08:56:42.002Z,1.30
2019-02-10T08:57:41.880Z,1.10
2019-02-10T08:59:34.549Z,1.40
2019-02-10T09:00:34.433Z,1.00
2019-02-10T09:02:27.122Z,2.20
2019-02-10T09:03:26.982Z,1.40
2019-02-10T09:05:19.666Z,1.70
2019-02-10T09:06:19.535Z,1.60
2019-02-10T09:08:12.202Z,1.80
2019-02-10T09:09:12.100Z,1.50
2019-02-10T09:11:04.776Z,1.50
2019-02-10T09:12:04.645Z,1.30
2019-02-10T09:13:57.323Z,3.60
2019-02-10T09:14:57.196Z,1.40
2019-02-10T09:16:49.875Z,1.70
2019-02-10T09:17:49.748Z,1.40
2019-02-10T09:19:42.433Z,1.40
2019-02-10T09:20:42.302Z,1.80
2019-02-10T09:22:34.987Z,1.30
2019-02-10T09:23:34.869Z,3.90
2019-02-10T09:25:27.577Z,2.10
2019-02-10T09:26:27.441Z,1.40
2019-02-10T09:28:21.104Z,1.50
2019-02-10T09:29:20.990Z,1.60
2019-02-10T09:31:13.674Z,2.20
2019-02-10T09:32:13.549Z,3.30
2019-02-10T09:34:06.234Z,1.40
2019-02-10T09:35:06.112Z,2.50
2019-02-10T09:36:58.787Z,1.60
2019-02-10T09:37:58.660Z,1.70
2019-02-10T09:39:51.348Z,1.30
2019-02-10T09:40:51.222Z,1.40
2019-02-10T09:42:43.940Z,1.40
2019-02-10T09:43:43.865Z,1.70
2019-02-10T09:45:36.460Z,1.50
2019-02-10T09:46:36.333Z,0.90
2019-02-10T09:48:29.042Z,1.10
2019-02-10T09:49:28.907Z,1.90
2019-02-10T09:51:21.584Z,2.30
2019-02-10T09:52:21.464Z,3.70
2019-02-10T09:54:14.148Z,1.20
2019-02-10T09:55:14.018Z,1.40
2019-02-10T09:57:06.683Z,1.30
2019-02-10T09:58:06.588Z,1.30
2019-02-10T09:59:59.260Z,1.20
2019-02-10T10:00:59.128Z,1.50
2019-02-10T10:02:51.799Z,1.70
2019-02-10T10:03:51.680Z,1.50
2019-02-10T10:05:44.362Z,1.40
2019-02-10T10:06:44.239Z,1.20
2019-02-10T10:08:36.915Z,1.60
2019-02-10T10:09:36.797Z,1.50
2019-02-10T10:11:29.484Z,1.30
2019-02-10T10:12:29.360Z,1.40
2019-02-10T10:14:22.042Z,1.80
2019-02-10T10:15:21.921Z,1.30
2019-02-10T10:17:14.594Z,1.30
2019-02-10T10:18:14.471Z,1.50
2019-02-10T10:20:07.154Z,1.50
2019-02-10T10:21:07.029Z,1.70
2019-02-10T10:22:59.697Z,1.60
2019-02-10T10:23:59.572Z,2.70
2019-02-10T10:25:52.256Z,1.50
2019-02-10T10:26:52.131Z,1.40
2019-02-10T10:28:44.801Z,1.30
2019-02-10T10:29:44.685Z,1.30
2019-02-10T10:31:37.371Z,1.10
2019-02-10T10:32:37.336Z,1.50
2019-02-10T10:34:29.918Z,1.80
2019-02-10T10:35:29.811Z,1.70
2019-02-10T10:37:22.494Z,2.50
2019-02-10T10:38:22.362Z,1.40
2019-02-10T10:40:15.046Z,0.90
2019-02-10T10:41:14.924Z,1.30
2019-02-10T10:43:07.624Z,1.10
2019-02-10T10:44:07.473Z,1.20
2019-02-10T10:46:00.801Z,1.20
2019-02-10T10:47:00.030Z,1.10
2019-02-10T10:48:52.703Z,0.90
2019-02-10T10:49:52.585Z,1.10
2019-02-10T10:51:45.274Z,1.30
2019-02-10T10:52:45.144Z,1.40
2019-02-10T10:54:42.689Z,1.50
2019-02-10T10:55:37.735Z,0.90
2019-02-10T10:57:30.474Z,1.10
2019-02-10T10:58:30.309Z,1.00
2019-02-10T11:00:22.994Z,1.00
2019-02-10T11:01:25.345Z,0.70
2019-02-10T11:03:17.255Z,1.10
2019-02-10T11:04:15.578Z,0.80
2019-02-10T11:06:08.426Z,1.00
2019-02-10T11:07:08.001Z,0.90
2019-02-10T11:09:00.788Z,1.20
2019-02-10T11:10:00.567Z,1.10
2019-02-10T11:11:53.260Z,0.90
2019-02-10T11:12:53.119Z,0.80
2019-02-10T11:14:46.506Z,1.10
2019-02-10T11:15:45.687Z,0.80
2019-02-10T11:17:38.369Z,1.20
2019-02-10T11:18:38.243Z,0.90
2019-02-10T11:20:30.940Z,1.20
2019-02-10T11:21:30.806Z,1.30
2019-02-10T11:23:23.490Z,0.80
2019-02-10T11:24:28.593Z,1.20
2019-02-10T11:26:16.062Z,1.20
2019-02-10T11:27:15.934Z,1.00
2019-02-10T11:29:08.606Z,0.90
2019-02-10T11:30:08.485Z,1.20
2019-02-10T11:32:01.165Z,0.90
2019-02-10T11:33:01.041Z,0.80
2019-02-10T11:34:53.720Z,0.70
2019-02-10T11:35:53.604Z,1.20
2019-02-10T11:37:46.288Z,1.30
2019-02-10T11:38:46.160Z,0.80
2019-02-10T11:40:38.831Z,1.10
2019-02-10T11:41:38.718Z,1.00
2019-02-10T11:43:31.483Z,1.20
2019-02-10T11:44:31.272Z,1.60
2019-02-10T11:46:23.971Z,1.60
2019-02-10T11:47:23.826Z,1.20
2019-02-10T11:49:16.511Z,0.80
2019-02-10T11:50:16.401Z,1.20
2019-02-10T11:52:09.089Z,0.70
2019-02-10T11:53:08.959Z,1.00
2019-02-10T11:55:01.625Z,0.90
2019-02-10T11:56:01.517Z,1.10
2019-02-10T11:57:54.222Z,0.90
2019-02-10T11:58:54.071Z,1.30
2019-02-10T12:00:46.735Z,0.80
2019-02-10T12:01:46.623Z,1.80
2019-02-10T12:03:39.330Z,1.10
2019-02-10T12:04:39.199Z,1.40
2019-02-10T12:06:31.880Z,1.30
2019-02-10T12:07:31.755Z,0.80
2019-02-10T12:09:24.434Z,1.40
2019-02-10T12:10:24.319Z,1.20
2019-02-10T12:12:17.001Z,1.20
2019-02-10T12:13:16.879Z,0.80
2019-02-10T12:15:09.550Z,1.00
2019-02-10T12:16:09.444Z,1.20
2019-02-10T12:18:02.125Z,1.10
2019-02-10T12:19:01.994Z,1.00
2019-02-10T12:20:54.680Z,1.30
2019-02-10T12:21:54.577Z,1.20
2019-02-10T12:23:47.254Z,1.30
2019-02-10T12:24:47.126Z,0.90
2019-02-10T12:26:39.806Z,1.30
2019-02-10T12:27:39.682Z,1.00
2019-02-10T12:29:32.357Z,1.30
2019-02-10T12:30:32.251Z,1.50
2019-02-10T12:32:24.938Z,1.80
2019-02-10T12:33:24.812Z,1.00
2019-02-10T12:35:17.468Z,2.20
2019-02-10T12:36:17.355Z,1.10
2019-02-10T12:38:10.047Z,1.70
2019-02-10T12:39:09.921Z,1.20
2019-02-10T12:41:02.596Z,1.40
2019-02-10T12:42:02.486Z,1.80
2019-02-10T12:43:55.174Z,1.70
2019-02-10T12:44:55.047Z,1.40
2019-02-10T12:46:47.739Z,1.50
2019-02-10T12:47:47.609Z,2.30
2019-02-10T12:49:40.284Z,1.80
2019-02-10T12:50:40.169Z,1.30
2019-02-10T12:52:32.855Z,1.50
2019-02-10T12:53:32.723Z,1.50
2019-02-10T12:55:27.182Z,1.90
2019-02-10T12:56:25.280Z,1.50
2019-02-10T12:58:17.967Z,1.80
2019-02-10T12:59:17.843Z,1.70
2019-02-10T13:01:10.519Z,2.50
2019-02-10T13:02:10.413Z,1.70
2019-02-10T13:04:03.099Z,1.90
2019-02-10T13:05:02.974Z,1.80
2019-02-10T13:06:55.642Z,1.70
2019-02-10T13:07:55.538Z,1.70
2019-02-10T13:09:48.230Z,2.30
2019-02-10T13:10:48.093Z,2.00
2019-02-10T13:12:40.789Z,2.60
2019-02-10T13:13:40.667Z,2.40
2019-02-10T13:15:33.335Z,2.80
2019-02-10T13:16:33.222Z,2.90
2019-02-10T13:18:25.918Z,3.10
2019-02-10T13:19:25.786Z,3.20
2019-02-10T13:21:18.459Z,3.50
2019-02-10T13:22:18.344Z,3.70
2019-02-10T13:24:11.092Z,4.00
2019-02-10T13:25:10.928Z,4.10
2019-02-10T13:27:03.593Z,3.60
2019-02-10T13:28:03.486Z,4.20
2019-02-10T13:29:56.161Z,4.30
2019-02-10T13:30:56.035Z,4.50
2019-02-10T13:32:48.721Z,4.30
2019-02-10T13:33:48.598Z,4.60
2019-02-10T13:35:41.270Z,4.40
2019-02-10T13:36:41.159Z,4.50
2019-02-10T13:38:36.313Z,4.20
2019-02-10T13:39:33.723Z,4.30
2019-02-10T13:41:26.397Z,3.80
2019-02-10T13:42:26.288Z,3.90
2019-02-10T13:44:18.973Z,3.80
2019-02-10T13:45:18.854Z,4.20
2019-02-10T13:47:11.737Z,3.90
2019-02-10T13:48:11.462Z,3.40
2019-02-10T13:50:04.180Z,3.50
2019-02-10T13:51:04.052Z,3.40
2019-02-10T13:52:56.705Z,3.50
2019-02-10T13:53:56.628Z,3.00
2019-02-10T13:55:49.253Z,3.10
2019-02-10T13:56:49.136Z,2.50
2019-02-10T13:58:41.819Z,2.50
2019-02-10T13:59:41.700Z,3.60
2019-02-10T14:01:34.491Z,1.90
2019-02-10T14:02:34.275Z,2.00
2019-02-10T14:04:27.067Z,1.90
2019-02-10T14:05:26.846Z,2.10
2019-02-10T14:07:19.579Z,2.20
2019-02-10T14:08:19.395Z,2.00
2019-02-10T14:10:12.063Z,2.20
2019-02-10T14:11:11.956Z,2.50
2019-02-10T14:13:04.656Z,2.40
2019-02-10T14:14:04.528Z,2.10
2019-02-10T14:15:57.261Z,1.90
2019-02-10T14:16:57.157Z,1.90
2019-02-10T14:18:49.860Z,2.20
2019-02-10T14:19:49.720Z,1.40
2019-02-10T14:21:42.423Z,2.50
2019-02-10T14:22:42.345Z,2.00
2019-02-10T14:24:34.980Z,1.30
2019-02-10T14:25:34.885Z,1.90
2019-02-10T14:27:27.591Z,1.60
2019-02-10T14:28:27.417Z,1.80
2019-02-10T14:30:20.188Z,1.50
2019-02-10T14:31:19.997Z,1.80
2019-02-10T14:33:12.860Z,1.90
2019-02-10T14:34:12.556Z,2.20
2019-02-10T14:36:05.230Z,1.60
2019-02-10T14:37:05.118Z,1.30
2019-02-10T14:38:58.048Z,1.80
2019-02-10T14:39:57.893Z,1.60
2019-02-10T14:41:50.549Z,2.70
2019-02-10T14:42:50.497Z,2.30
2019-02-10T14:44:43.137Z,1.30
2019-02-10T14:45:43.070Z,1.00
2019-02-10T14:47:35.684Z,1.50
2019-02-10T14:48:35.580Z,2.50
2019-02-10T14:50:29.030Z,1.40
2019-02-10T14:51:28.155Z,1.20
2019-02-10T14:53:20.832Z,1.80
2019-02-10T14:54:20.706Z,1.40
2019-02-10T14:56:13.367Z,1.40
2019-02-10T14:57:13.262Z,1.40
2019-02-10T14:59:05.955Z,1.20
2019-02-10T15:00:05.816Z,1.00
2019-02-10T15:01:58.482Z,1.30
2019-02-10T15:02:58.374Z,1.60
2019-02-10T15:04:51.053Z,1.30
2019-02-10T15:05:50.927Z,1.30
2019-02-10T15:07:43.603Z,1.80
2019-02-10T15:08:43.495Z,1.70
2019-02-10T15:10:41.842Z,2.10
2019-02-10T15:11:36.046Z,1.80
2019-02-10T15:13:28.705Z,1.60
2019-02-10T15:14:28.611Z,1.40
2019-02-10T15:16:21.283Z,1.70
2019-02-10T15:17:21.154Z,2.10
2019-02-10T15:19:13.857Z,2.60
2019-02-10T15:20:13.718Z,1.80
2019-02-10T15:22:06.393Z,1.60
2019-02-10T15:23:06.285Z,1.60
2019-02-10T15:24:58.978Z,2.20
2019-02-10T15:25:58.839Z,1.90
2019-02-10T15:27:51.531Z,1.70
2019-02-10T15:28:51.401Z,2.00
2019-02-10T15:30:44.088Z,2.40
2019-02-10T15:31:43.960Z,2.10
2019-02-10T15:33:36.634Z,2.50
2019-02-10T15:34:36.512Z,2.50
2019-02-10T15:36:29.190Z,2.90
2019-02-10T15:37:29.068Z,2.90
2019-02-10T15:39:21.740Z,3.50
2019-02-10T15:40:21.625Z,3.20
2019-02-10T15:42:14.301Z,3.20
2019-02-10T15:43:14.172Z,3.50
2019-02-10T15:45:06.861Z,3.30
2019-02-10T15:46:06.716Z,3.90
2019-02-10T15:47:59.400Z,4.20
2019-02-10T15:48:59.282Z,4.10
2019-02-10T15:50:51.991Z,4.30
2019-02-10T15:51:51.855Z,4.20
2019-02-10T15:53:44.524Z,4.60
2019-02-10T15:54:44.414Z,6.20
2019-02-10T15:56:37.097Z,4.80
2019-02-10T15:57:36.969Z,5.00
2019-02-10T15:59:29.638Z,5.30
2019-02-10T16:00:29.529Z,5.60
2019-02-10T16:02:22.210Z,5.60
2019-02-10T16:03:22.081Z,5.40
2019-02-10T16:05:14.766Z,6.90
2019-02-10T16:06:14.635Z,5.90
2019-02-10T16:08:07.305Z,6.50
2019-02-10T16:09:07.195Z,5.50
2019-02-10T16:10:59.877Z,7.40
2019-02-10T16:11:59.751Z,8.20
2019-02-10T16:13:52.435Z,7.60
2019-02-10T16:14:52.322Z,7.60
2019-02-10T16:16:45.019Z,7.10
2019-02-10T16:17:44.877Z,7.50
2019-02-10T16:19:37.566Z,8.20
2019-02-10T16:20:37.460Z,7.10
2019-02-10T16:22:30.138Z,7.00
2019-02-10T16:23:30.000Z,8.90
2019-02-10T16:25:22.684Z,10.10
2019-02-10T16:26:22.553Z,9.90
2019-02-10T16:28:15.236Z,9.70
2019-02-10T16:29:15.126Z,9.20
2019-02-10T16:31:07.800Z,7.30
2019-02-10T16:32:07.680Z,7.20
2019-02-10T16:34:00.347Z,6.10
2019-02-10T16:35:00.241Z,7.90
2019-02-10T16:36:52.975Z,7.20
2019-02-10T16:37:52.797Z,7.00
2019-02-10T16:39:45.457Z,6.50
2019-02-10T16:40:45.350Z,5.10
2019-02-10T16:42:38.036Z,5.30
2019-02-10T16:43:37.899Z,5.40
2019-02-10T16:45:30.581Z,5.70
2019-02-10T16:46:30.454Z,4.70
2019-02-10T16:48:23.118Z,4.40
2019-02-10T16:49:22.999Z,4.50
2019-02-10T16:51:15.686Z,4.70
2019-02-10T16:52:15.562Z,5.40
2019-02-10T16:54:08.224Z,4.30
2019-02-10T16:55:08.111Z,5.00
2019-02-10T16:57:00.800Z,4.70
2019-02-10T16:58:00.674Z,5.20
2019-02-10T16:59:53.354Z,5.10
2019-02-10T17:00:53.224Z,5.50
2019-02-10T17:02:45.889Z,5.00
2019-02-10T17:03:45.765Z,4.70
2019-02-10T17:05:39.877Z,6.00
2019-02-10T17:06:38.356Z,6.50
2019-02-10T17:08:30.989Z,5.00
2019-02-10T17:09:30.871Z,6.90
2019-02-10T17:11:23.574Z,7.50
2019-02-10T17:12:23.423Z,7.50
2019-02-10T17:14:16.084Z,6.20
2019-02-10T17:15:15.972Z,6.80
2019-02-10T17:17:08.647Z,5.90
2019-02-10T17:18:08.516Z,5.50
2019-02-10T17:20:01.208Z,5.20
2019-02-10T17:21:01.082Z,5.30
2019-02-10T17:22:53.750Z,5.50
2019-02-10T17:23:53.635Z,5.30
2019-02-10T17:25:46.320Z,5.00
2019-02-10T17:26:46.198Z,4.70
2019-02-10T17:28:38.863Z,5.00
2019-02-10T17:29:38.758Z,4.30
2019-02-10T17:31:31.442Z,9.60
2019-02-10T17:32:31.311Z,5.10
2019-02-10T17:34:23.977Z,6.50
2019-02-10T17:35:23.868Z,6.80
2019-02-10T17:37:16.545Z,4.50
2019-02-10T17:38:16.416Z,4.90
2019-02-10T17:40:09.101Z,4.40
2019-02-10T17:41:08.971Z,3.30
2019-02-10T17:43:03.066Z,3.90
2019-02-10T17:44:01.530Z,8.90
2019-02-10T17:45:54.209Z,3.20
2019-02-10T17:46:54.082Z,3.30
2019-02-10T17:48:46.747Z,4.00
2019-02-10T17:49:46.633Z,3.70
2019-02-10T17:51:39.323Z,2.90
2019-02-10T17:52:39.198Z,2.90
2019-02-10T17:54:31.878Z,2.70
2019-02-10T17:55:31.747Z,2.70
2019-02-10T17:57:24.442Z,2.70
2019-02-10T17:58:24.312Z,2.70
2019-02-10T18:00:16.982Z,3.00
2019-02-10T18:01:16.859Z,2.40
2019-02-10T18:03:09.542Z,2.60
2019-02-10T18:04:09.415Z,2.30
2019-02-10T18:06:02.081Z,3.50
2019-02-10T18:07:01.953Z,3.10
2019-02-10T18:08:54.617Z,3.80
2019-02-10T18:09:54.510Z,4.30
2019-02-10T18:11:47.222Z,3.30
2019-02-10T18:12:47.095Z,3.10
2019-02-10T18:14:39.782Z,2.50
2019-02-10T18:15:39.670Z,2.60
2019-02-10T18:17:32.373Z,2.80
2019-02-10T18:18:32.242Z,2.90
2019-02-10T18:20:24.923Z,3.70
2019-02-10T18:21:24.792Z,3.60
2019-02-10T18:23:17.497Z,3.30
2019-02-10T18:24:17.385Z,3.00
2019-02-10T18:26:10.071Z,2.40
2019-02-10T18:27:09.943Z,2.20
2019-02-10T18:29:02.614Z,1.80
2019-02-10T18:30:02.493Z,2.00
2019-02-10T18:31:55.164Z,1.70
2019-02-10T18:32:55.037Z,1.70
2019-02-10T18:34:47.709Z,1.70
2019-02-10T18:35:47.601Z,1.90
2019-02-10T18:37:40.275Z,2.00
2019-02-10T18:38:40.151Z,1.70
2019-02-10T18:40:32.831Z,1.70
2019-02-10T18:41:39.178Z,1.90
2019-02-10T18:43:25.373Z,1.50
2019-02-10T18:44:25.317Z,1.50
2019-02-10T18:46:18.001Z,1.60
2019-02-10T18:47:17.880Z,1.60
2019-02-10T18:49:10.596Z,2.90
2019-02-10T18:50:10.417Z,1.90
2019-02-10T18:52:03.114Z,2.00
2019-02-10T18:53:02.984Z,1.90
2019-02-10T18:54:55.663Z,2.10
2019-02-10T18:55:55.548Z,3.30
2019-02-10T18:57:48.338Z,2.10
2019-02-10T18:58:54.214Z,2.30
2019-02-10T19:00:40.779Z,2.20
2019-02-10T19:01:40.671Z,2.20
2019-02-10T19:03:33.329Z,2.30
2019-02-10T19:04:33.216Z,2.20
2019-02-10T19:06:25.902Z,3.00
2019-02-10T19:07:25.769Z,2.50
2019-02-10T19:09:18.443Z,4.20
2019-02-10T19:10:18.325Z,3.90
2019-02-10T19:12:11.013Z,3.30
2019-02-10T19:13:10.947Z,2.90
2019-02-10T19:15:03.619Z,4.20
2019-02-10T19:16:03.427Z,5.50
2019-02-10T19:17:56.114Z,3.50
2019-02-10T19:18:55.980Z,3.70
2019-02-10T19:20:48.689Z,3.30
2019-02-10T19:21:48.549Z,3.70
2019-02-10T19:23:41.222Z,3.50
2019-02-10T19:24:41.098Z,3.30
2019-02-10T19:26:33.774Z,3.70
2019-02-10T19:27:33.660Z,3.40
2019-02-10T19:29:26.306Z,3.90
2019-02-10T19:30:26.194Z,3.50
2019-02-10T19:32:18.872Z,4.60
2019-02-10T19:33:18.744Z,4.50
2019-02-10T19:35:11.798Z,4.70
2019-02-10T19:36:11.687Z,4.40
2019-02-10T19:38:04.354Z,4.60
2019-02-10T19:39:04.229Z,3.70
2019-02-10T19:40:56.910Z,3.80
2019-02-10T19:41:56.777Z,4.00
2019-02-10T19:43:49.454Z,3.90
2019-02-10T19:44:49.329Z,3.90
2019-02-10T19:46:42.081Z,4.00
2019-02-10T19:47:41.950Z,3.90
2019-02-10T19:49:34.622Z,3.30
2019-02-10T19:50:34.546Z,3.80
2019-02-10T19:52:27.189Z,3.40
2019-02-10T19:53:27.061Z,3.70
2019-02-10T19:55:19.734Z,4.00
2019-02-10T19:56:19.601Z,3.90
2019-02-10T19:58:12.260Z,3.30
2019-02-10T19:59:12.154Z,3.90
2019-02-10T20:01:04.827Z,3.50
2019-02-10T20:02:04.700Z,3.80
2019-02-10T20:03:57.366Z,3.30
2019-02-10T20:04:57.245Z,3.80
2019-02-10T20:06:49.922Z,3.40
2019-02-10T20:07:49.797Z,3.50
2019-02-10T20:09:42.493Z,4.00
2019-02-10T20:10:42.436Z,3.90
2019-02-10T20:12:35.503Z,3.80
2019-02-10T20:13:34.908Z,3.70
2019-02-10T20:15:27.605Z,3.80
2019-02-10T20:16:27.471Z,3.40
2019-02-10T20:18:20.157Z,3.20
2019-02-10T20:19:20.023Z,3.20
2019-02-10T20:21:12.747Z,2.90
2019-02-10T20:22:12.609Z,3.30
2019-02-10T20:24:05.272Z,3.60
2019-02-10T20:25:05.156Z,3.50
2019-02-10T20:26:57.833Z,3.60
2019-02-10T20:27:57.702Z,3.60
2019-02-10T20:29:50.435Z,3.80
2019-02-10T20:30:50.255Z,3.60
2019-02-10T20:32:43.279Z,4.20
2019-02-10T20:33:42.821Z,3.90
2019-02-10T20:35:35.489Z,3.60
2019-02-10T20:36:35.358Z,3.30
2019-02-10T20:38:28.126Z,3.10
2019-02-10T20:39:27.931Z,3.00
2019-02-10T20:41:20.622Z,2.50
2019-02-10T20:42:20.636Z,2.60
2019-02-10T20:44:13.168Z,2.60
2019-02-10T20:45:13.056Z,2.40
2019-02-10T20:47:05.723Z,2.20
2019-02-10T20:48:05.585Z,2.60
2019-02-10T20:49:58.262Z,2.00
2019-02-10T20:50:58.147Z,2.00
2019-02-10T20:52:50.819Z,2.50
2019-02-10T20:53:50.700Z,2.50
2019-02-10T20:55:43.832Z,2.10
2019-02-10T20:56:43.246Z,1.90
2019-02-10T20:58:36.016Z,1.70
2019-02-10T20:59:35.812Z,1.90
2019-02-10T21:01:28.570Z,2.10
2019-02-10T21:02:28.332Z,2.10
2019-02-10T21:04:21.170Z,1.80
2019-02-10T21:05:20.901Z,2.00
2019-02-10T21:07:13.850Z,2.40
2019-02-10T21:08:13.720Z,2.50
2019-02-10T21:10:06.442Z,2.50
2019-02-10T21:11:06.267Z,2.20
2019-02-10T21:12:58.956Z,2.00
2019-02-10T21:13:58.826Z,2.10
2019-02-10T21:15:51.506Z,1.70
2019-02-10T21:16:51.371Z,1.60
2019-02-10T21:18:44.030Z,1.70
2019-02-10T21:19:43.919Z,1.80
2019-02-10T21:21:36.600Z,1.70
2019-02-10T21:22:36.466Z,1.60
2019-02-10T21:24:29.126Z,1.60
2019-02-10T21:25:29.019Z,1.50
2019-02-10T21:27:21.697Z,1.90
2019-02-10T21:28:21.569Z,1.90
2019-02-10T21:30:14.247Z,1.60
2019-02-10T21:31:14.144Z,1.90
2019-02-10T21:33:07.080Z,1.50
2019-02-10T21:34:06.677Z,1.90
2019-02-10T21:35:59.366Z,1.50
2019-02-10T21:36:59.224Z,1.80
2019-02-10T21:38:51.901Z,1.60
2019-02-10T21:39:51.829Z,1.60
2019-02-10T21:41:44.483Z,1.50
2019-02-10T21:42:44.339Z,2.10
2019-02-10T21:44:37.009Z,1.10
2019-02-10T21:45:36.909Z,1.70
2019-02-10T21:47:29.569Z,1.40
2019-02-10T21:48:29.443Z,1.50
2019-02-10T21:50:22.126Z,1.60
2019-02-10T21:51:21.992Z,1.50
2019-02-10T21:53:14.652Z,1.80
2019-02-10T21:54:14.550Z,1.80
2019-02-10T21:56:07.211Z,1.60
2019-02-10T21:57:07.085Z,1.50
2019-02-10T21:58:59.750Z,1.40
2019-02-10T21:59:59.638Z,1.90
2019-02-10T22:01:53.801Z,1.90
2019-02-10T22:02:52.189Z,1.80
2019-02-10T22:04:44.861Z,1.50
2019-02-10T22:05:44.727Z,1.40
2019-02-10T22:07:37.408Z,1.30
2019-02-10T22:08:37.277Z,1.80
2019-02-10T22:10:29.946Z,1.80
2019-02-10T22:11:29.833Z,1.60
2019-02-10T22:13:22.518Z,1.60
2019-02-10T22:14:22.379Z,1.40
2019-02-10T22:16:15.052Z,1.80
2019-02-10T22:17:14.912Z,1.70
2019-02-10T22:19:07.576Z,1.80
2019-02-10T22:20:07.482Z,1.80
2019-02-10T22:22:00.155Z,1.80
2019-02-10T22:23:00.021Z,1.70
2019-02-10T22:24:52.685Z,1.80
2019-02-10T22:25:52.567Z,2.00
2019-02-10T22:27:45.246Z,2.50
2019-02-10T22:28:45.111Z,1.80
2019-02-10T22:30:37.771Z,2.10
2019-02-10T22:31:37.659Z,2.30
2019-02-10T22:33:30.333Z,2.10
2019-02-10T22:34:30.201Z,1.70
2019-02-10T22:36:22.883Z,2.20
2019-02-10T22:37:22.750Z,1.80
2019-02-10T22:39:15.405Z,2.20
2019-02-10T22:40:15.292Z,2.60
2019-02-10T22:42:07.973Z,2.40
2019-02-10T22:43:07.842Z,1.90
2019-02-10T22:45:00.504Z,2.20
2019-02-10T22:46:00.385Z,5.00
2019-02-10T22:47:53.075Z,2.30
2019-02-10T22:48:52.934Z,2.30
2019-02-10T22:50:45.596Z,2.50
2019-02-10T22:51:45.477Z,2.50
2019-02-10T22:53:38.156Z,2.40
2019-02-10T22:54:38.028Z,2.20
2019-02-10T22:56:30.711Z,2.60
2019-02-10T22:57:30.576Z,2.70
2019-02-10T22:59:23.241Z,3.00
